createdAt,value
2018-02-03T00:00:23.682Z,2.60
2018-02-03T00:02:51.217Z,2.50
2018-02-03T00:05:18.689Z,2.60
2018-02-03T00:07:46.141Z,2.50
2018-02-03T00:10:13.581Z,2.70
2018-02-03T00:12:41.033Z,2.70
2018-02-03T00:15:08.528Z,2.70
2018-02-03T00:17:35.962Z,2.70
2018-02-03T00:20:03.391Z,2.70
2018-02-03T00:22:30.894Z,2.60
2018-02-03T00:24:58.341Z,2.70
2018-02-03T00:27:25.787Z,2.60
2018-02-03T00:29:53.213Z,2.60
2018-02-03T00:32:20.709Z,2.50
2018-02-03T00:34:48.152Z,2.50
2018-02-03T00:37:15.638Z,2.40
2018-02-03T00:39:43.074Z,2.40
2018-02-03T00:42:10.509Z,2.30
2018-02-03T00:44:37.953Z,2.30
2018-02-03T00:47:05.545Z,2.30
2018-02-03T00:49:32.974Z,2.30
2018-02-03T00:52:00.461Z,2.20
2018-02-03T00:54:27.927Z,2.20
2018-02-03T00:56:55.381Z,2.10
2018-02-03T00:59:22.838Z,2.00
2018-02-03T01:01:50.295Z,2.00
2018-02-03T01:04:17.725Z,2.10
2018-02-03T01:06:45.155Z,2.10
2018-02-03T01:09:13.390Z,2.00
2018-02-03T01:11:40.842Z,1.90
2018-02-03T01:14:08.300Z,2.00
2018-02-03T01:16:35.722Z,2.00
2018-02-03T01:19:03.193Z,2.00
2018-02-03T01:21:30.663Z,2.00
2018-02-03T01:23:58.426Z,2.10
2018-02-03T01:26:25.861Z,2.10
2018-02-03T01:28:53.333Z,2.00
2018-02-03T01:31:20.786Z,2.00
2018-02-03T01:33:48.213Z,2.00
2018-02-03T01:36:15.658Z,1.90
2018-02-03T01:38:43.080Z,1.90
2018-02-03T01:41:10.520Z,1.90
2018-02-03T01:43:37.938Z,2.00
2018-02-03T01:46:05.375Z,2.00
2018-02-03T01:48:33.653Z,1.90
2018-02-03T01:51:01.858Z,2.10
2018-02-03T01:53:29.324Z,2.10
2018-02-03T01:55:56.754Z,1.90
2018-02-03T01:58:24.238Z,1.90
2018-02-03T02:00:51.790Z,1.80
2018-02-03T02:03:19.213Z,1.80
2018-02-03T02:05:46.812Z,1.80
2018-02-03T02:08:14.373Z,1.70
2018-02-03T02:10:41.929Z,1.70
2018-02-03T02:13:09.485Z,1.70
2018-02-03T02:15:36.952Z,1.80
2018-02-03T02:18:04.595Z,1.80
2018-02-03T02:20:32.061Z,1.70
2018-02-03T02:22:59.576Z,1.60
2018-02-03T02:25:26.982Z,1.60
2018-02-03T02:27:54.416Z,1.50
2018-02-03T02:30:21.889Z,1.50
2018-02-03T02:32:49.350Z,1.50
2018-02-03T02:35:16.793Z,1.50
2018-02-03T02:37:44.225Z,1.40
2018-02-03T02:40:11.813Z,1.40
2018-02-03T02:42:39.251Z,1.50
2018-02-03T02:45:06.669Z,1.50
2018-02-03T02:47:34.899Z,1.50
2018-02-03T02:50:02.358Z,1.50
2018-02-03T02:52:29.794Z,1.50
2018-02-03T02:54:57.266Z,1.40
2018-02-03T02:57:24.717Z,1.40
2018-02-03T02:59:52.184Z,1.30
2018-02-03T03:02:19.646Z,1.50
2018-02-03T03:04:47.101Z,1.50
2018-02-03T03:07:14.541Z,1.40
2018-02-03T03:09:41.957Z,1.40
2018-02-03T03:12:10.185Z,1.40
2018-02-03T03:14:37.633Z,1.30
2018-02-03T03:17:05.065Z,1.40
2018-02-03T03:19:32.541Z,1.40
2018-02-03T03:22:00.089Z,1.40
2018-02-03T03:24:27.501Z,1.40
2018-02-03T03:26:55.733Z,1.50
2018-02-03T03:29:23.169Z,1.40
2018-02-03T03:31:50.612Z,1.50
2018-02-03T03:34:18.101Z,1.50
2018-02-03T03:36:45.558Z,1.60
2018-02-03T03:39:12.993Z,1.60
2018-02-03T03:41:40.475Z,1.60
2018-02-03T03:44:07.923Z,1.50
2018-02-03T03:46:35.357Z,1.60
2018-02-03T03:49:02.806Z,1.70
2018-02-03T03:51:30.244Z,1.80
2018-02-03T03:53:58.449Z,1.90
2018-02-03T03:56:25.885Z,1.90
2018-02-03T03:58:53.390Z,1.90
2018-02-03T04:01:20.814Z,1.80
2018-02-03T04:03:48.288Z,1.80
2018-02-03T04:06:16.490Z,1.80
2018-02-03T04:08:43.921Z,1.70
2018-02-03T04:11:11.345Z,1.70
2018-02-03T04:13:38.837Z,1.60
2018-02-03T04:16:06.260Z,1.40
2018-02-03T04:18:33.751Z,1.40
2018-02-03T04:21:01.187Z,1.30
2018-02-03T04:23:28.621Z,1.30
2018-02-03T04:25:56.167Z,1.20
2018-02-03T04:28:23.672Z,1.20
2018-02-03T04:30:51.115Z,1.10
2018-02-03T04:33:18.541Z,1.20
2018-02-03T04:35:46.761Z,1.20
2018-02-03T04:38:14.184Z,1.10
2018-02-03T04:40:41.678Z,1.20
2018-02-03T04:43:09.115Z,1.10
2018-02-03T04:45:36.552Z,1.10
2018-02-03T04:48:03.989Z,1.10
2018-02-03T04:50:32.193Z,1.10
2018-02-03T04:52:59.681Z,1.10
2018-02-03T04:55:27.233Z,1.10
2018-02-03T04:57:54.661Z,1.10
2018-02-03T05:00:22.178Z,1.10
2018-02-03T05:02:49.700Z,1.10
2018-02-03T05:05:17.133Z,1.10
2018-02-03T05:07:44.556Z,1.10
2018-02-03T05:10:12.758Z,1.00
2018-02-03T05:12:40.334Z,0.90
2018-02-03T05:15:07.741Z,1.00
2018-02-03T05:17:35.942Z,1.00
2018-02-03T05:20:03.369Z,0.90
2018-02-03T05:22:30.801Z,1.00
2018-02-03T05:24:58.230Z,1.00
2018-02-03T05:27:25.682Z,1.00
2018-02-03T05:29:53.166Z,0.90
2018-02-03T05:32:20.722Z,0.90
2018-02-03T05:34:48.154Z,0.90
2018-02-03T05:37:15.666Z,0.90
2018-02-03T05:39:43.031Z,1.00
2018-02-03T05:42:11.229Z,1.10
2018-02-03T05:44:40.253Z,1.00
2018-02-03T05:47:07.693Z,1.10
2018-02-03T05:49:35.142Z,1.10
2018-02-03T05:52:02.581Z,1.00
2018-02-03T05:54:30.332Z,0.90
2018-02-03T05:56:58.554Z,1.00
2018-02-03T05:59:25.985Z,0.90
2018-02-03T06:01:53.420Z,1.10
2018-02-03T06:04:21.612Z,1.10
2018-02-03T06:06:49.056Z,1.10
2018-02-03T06:09:16.484Z,1.10
2018-02-03T06:11:44.013Z,1.20
2018-02-03T06:14:11.468Z,1.10
2018-02-03T06:16:38.881Z,1.10
2018-02-03T06:19:07.070Z,1.00
2018-02-03T06:21:34.521Z,0.90
2018-02-03T06:24:02.020Z,1.00
2018-02-03T06:26:29.461Z,1.10
2018-02-03T06:28:56.898Z,1.10
2018-02-03T06:31:24.330Z,1.00
2018-02-03T06:33:52.534Z,1.00
2018-02-03T06:36:19.962Z,1.00
2018-02-03T06:38:48.166Z,1.10
2018-02-03T06:41:15.584Z,1.10
2018-02-03T06:43:43.874Z,1.20
2018-02-03T06:46:11.413Z,1.10
2018-02-03T06:48:39.648Z,1.40
2018-02-03T06:51:07.078Z,1.30
2018-02-03T06:53:34.513Z,1.40
2018-02-03T06:56:02.014Z,1.50
2018-02-03T06:58:29.475Z,1.50
2018-02-03T07:00:56.921Z,1.50
2018-02-03T07:03:24.353Z,1.50
2018-02-03T07:05:51.833Z,1.60
2018-02-03T07:08:19.271Z,1.60
2018-02-03T07:10:46.701Z,1.60
2018-02-03T07:13:14.146Z,1.50
2018-02-03T07:15:42.350Z,1.40
2018-02-03T07:18:09.781Z,1.40
2018-02-03T07:20:37.979Z,1.40
2018-02-03T07:23:05.401Z,1.30
2018-02-03T07:25:32.906Z,1.50
2018-02-03T07:28:00.318Z,1.40
2018-02-03T07:30:28.518Z,1.60
2018-02-03T07:32:55.957Z,1.50
2018-02-03T07:35:24.156Z,1.60
2018-02-03T07:37:51.590Z,1.60
2018-02-03T07:40:19.789Z,1.70
2018-02-03T07:42:47.264Z,1.70
2018-02-03T07:45:14.730Z,1.70
2018-02-03T07:47:42.178Z,1.70
2018-02-03T07:50:09.741Z,1.80
2018-02-03T07:52:37.166Z,1.70
2018-02-03T07:55:04.657Z,1.60
2018-02-03T07:57:32.090Z,1.60
2018-02-03T07:59:59.526Z,1.50
2018-02-03T08:02:26.955Z,1.50
2018-02-03T08:04:54.469Z,1.50
2018-02-03T08:07:21.901Z,1.50
2018-02-03T08:09:49.390Z,1.60
2018-02-03T08:12:16.853Z,1.40
2018-02-03T08:14:44.305Z,1.50
2018-02-03T08:17:11.765Z,1.60
2018-02-03T08:19:39.253Z,1.60
2018-02-03T08:22:06.666Z,1.60
2018-02-03T08:24:34.097Z,1.70
2018-02-03T08:27:01.529Z,1.70
2018-02-03T08:29:29.861Z,1.70
2018-02-03T08:31:57.330Z,1.70
2018-02-03T08:34:24.752Z,1.80
2018-02-03T08:36:52.226Z,1.70
2018-02-03T08:39:19.768Z,1.70
2018-02-03T08:41:47.238Z,1.80
2018-02-03T08:44:14.783Z,1.70
2018-02-03T08:46:42.255Z,1.70
2018-02-03T08:49:09.737Z,1.70
2018-02-03T08:51:37.266Z,1.80
2018-02-03T08:54:04.709Z,1.90
2018-02-03T08:56:32.147Z,1.80
2018-02-03T08:58:59.590Z,1.90
2018-02-03T09:01:27.796Z,1.80
2018-02-03T09:03:55.269Z,1.70
2018-02-03T09:06:23.125Z,1.90
2018-02-03T09:08:50.586Z,2.00
2018-02-03T09:11:18.010Z,2.10
2018-02-03T09:13:45.504Z,2.10
2018-02-03T09:16:12.933Z,2.00
2018-02-03T09:18:40.418Z,2.10
2018-02-03T09:21:07.873Z,2.20
2018-02-03T09:23:35.329Z,4.40
2018-02-03T09:26:02.758Z,2.00
2018-02-03T09:28:30.535Z,2.10
2018-02-03T09:30:57.970Z,2.10
2018-02-03T09:33:25.573Z,2.20
2018-02-03T09:35:53.013Z,2.30
2018-02-03T09:38:20.462Z,2.20
2018-02-03T09:40:48.685Z,2.30
2018-02-03T09:43:17.640Z,2.30
2018-02-03T09:45:45.074Z,2.30
2018-02-03T09:48:12.571Z,2.40
2018-02-03T09:50:39.998Z,2.40
2018-02-03T09:53:07.425Z,2.50
2018-02-03T09:55:34.945Z,2.60
2018-02-03T09:58:02.382Z,2.60
2018-02-03T10:00:29.801Z,2.30
2018-02-03T10:02:58.011Z,2.30
2018-02-03T10:05:25.446Z,2.20
2018-02-03T10:07:53.373Z,2.30
2018-02-03T10:10:20.935Z,2.50
2018-02-03T10:12:48.358Z,2.40
2018-02-03T10:15:15.845Z,2.30
2018-02-03T10:17:43.389Z,2.30
2018-02-03T10:20:10.849Z,2.30
2018-02-03T10:22:38.285Z,2.30
2018-02-03T10:25:05.790Z,2.30
2018-02-03T10:27:33.314Z,2.30
2018-02-03T10:30:00.781Z,2.20
2018-02-03T10:32:28.309Z,2.30
2018-02-03T10:34:55.778Z,2.20
2018-02-03T10:37:23.234Z,2.30
2018-02-03T10:39:50.678Z,2.30
2018-02-03T10:42:18.113Z,2.30
2018-02-03T10:44:45.610Z,2.30
2018-02-03T10:47:13.049Z,2.30
2018-02-03T10:49:40.527Z,2.30
2018-02-03T10:52:07.958Z,2.20
2018-02-03T10:54:35.445Z,2.20
2018-02-03T10:57:02.870Z,2.10
2018-02-03T10:59:30.436Z,1.90
2018-02-03T11:01:57.920Z,1.70
2018-02-03T11:04:25.365Z,1.70
2018-02-03T11:06:52.828Z,1.70
2018-02-03T11:09:20.269Z,1.70
2018-02-03T11:11:47.710Z,1.60
2018-02-03T11:14:15.150Z,1.70
2018-02-03T11:16:42.593Z,1.80
2018-02-03T11:19:10.829Z,1.90
2018-02-03T11:21:38.277Z,1.80
2018-02-03T11:24:05.722Z,1.90
2018-02-03T11:26:33.162Z,2.00
2018-02-03T11:29:00.830Z,2.00
2018-02-03T11:31:28.250Z,2.00
2018-02-03T11:33:56.632Z,1.70
2018-02-03T11:36:24.840Z,1.50
2018-02-03T11:38:52.322Z,1.40
2018-02-03T11:41:19.861Z,1.50
2018-02-03T11:43:47.349Z,1.60
2018-02-03T11:46:15.029Z,1.50
2018-02-03T11:48:42.630Z,1.60
2018-02-03T11:51:10.078Z,1.70
2018-02-03T11:53:37.561Z,1.80
2018-02-03T11:56:05.005Z,1.90
2018-02-03T11:58:32.456Z,1.80
2018-02-03T12:00:59.886Z,1.90
2018-02-03T12:03:27.330Z,1.90
2018-02-03T12:05:55.603Z,1.60
2018-02-03T12:08:23.124Z,1.50
2018-02-03T12:10:50.676Z,1.50
2018-02-03T12:13:18.117Z,1.40
2018-02-03T12:15:45.525Z,1.60
2018-02-03T12:18:13.140Z,1.70
2018-02-03T12:20:40.570Z,1.80
2018-02-03T12:23:08.038Z,1.70
2018-02-03T12:25:35.474Z,1.70
2018-02-03T12:28:03.078Z,1.80
2018-02-03T12:30:30.530Z,1.70
2018-02-03T12:32:57.949Z,1.60
2018-02-03T12:35:25.528Z,1.50
2018-02-03T12:37:52.983Z,1.60
2018-02-03T12:40:20.439Z,1.60
2018-02-03T12:42:47.915Z,1.70
2018-02-03T12:45:15.334Z,1.70
2018-02-03T12:47:42.766Z,1.70
2018-02-03T12:50:10.381Z,1.80
2018-02-03T12:52:37.841Z,1.70
2018-02-03T12:55:05.296Z,1.70
2018-02-03T12:57:32.717Z,1.70
2018-02-03T13:00:00.314Z,1.60
2018-02-03T13:02:27.762Z,1.50
2018-02-03T13:04:55.207Z,1.20
2018-02-03T13:07:22.626Z,1.20
2018-02-03T13:09:50.827Z,1.10
2018-02-03T13:12:18.401Z,1.10
2018-02-03T13:14:45.838Z,1.30
2018-02-03T13:17:13.520Z,1.40
2018-02-03T13:19:40.990Z,1.50
2018-02-03T13:22:08.419Z,1.60
2018-02-03T13:24:35.845Z,1.60
2018-02-03T13:27:04.045Z,1.50
2018-02-03T13:29:31.489Z,1.50
2018-02-03T13:31:58.992Z,1.50
2018-02-03T13:34:26.515Z,1.50
2018-02-03T13:36:54.010Z,1.50
2018-02-03T13:39:21.457Z,1.40
2018-02-03T13:41:48.893Z,1.50
2018-02-03T13:44:16.319Z,1.50
2018-02-03T13:46:44.550Z,1.30
2018-02-03T13:49:12.084Z,1.30
2018-02-03T13:51:39.486Z,1.40
2018-02-03T13:54:06.909Z,1.40
2018-02-03T13:56:34.333Z,1.50
2018-02-03T13:59:01.822Z,1.50
2018-02-03T14:01:29.279Z,1.50
2018-02-03T14:03:56.744Z,1.50
2018-02-03T14:06:24.157Z,1.60
2018-02-03T14:08:51.577Z,1.60
2018-02-03T14:11:19.122Z,1.70
2018-02-03T14:13:46.554Z,1.70
2018-02-03T14:16:14.115Z,1.80
2018-02-03T14:18:41.683Z,1.70
2018-02-03T14:21:09.116Z,1.60
2018-02-03T14:23:36.555Z,1.40
2018-02-03T14:26:09.763Z,1.50
2018-02-03T14:28:37.206Z,1.30
2018-02-03T14:31:04.634Z,1.40
2018-02-03T14:33:32.831Z,1.40
2018-02-03T14:36:00.282Z,1.30
2018-02-03T14:38:27.882Z,1.40
2018-02-03T14:40:55.552Z,1.50
2018-02-03T14:43:22.998Z,1.50
2018-02-03T14:45:50.447Z,1.60
2018-02-03T14:48:17.873Z,1.70
2018-02-03T14:50:45.318Z,1.60
2018-02-03T14:53:13.522Z,1.50
2018-02-03T14:55:40.957Z,1.50
2018-02-03T14:58:08.445Z,1.40
2018-02-03T15:00:36.019Z,1.40
2018-02-03T15:03:03.457Z,1.50
2018-02-03T15:05:30.906Z,1.50
2018-02-03T15:07:58.364Z,1.50
2018-02-03T15:10:25.782Z,1.30
2018-02-03T15:12:53.974Z,1.20
2018-02-03T15:15:22.187Z,1.30
2018-02-03T15:17:49.630Z,1.30
2018-02-03T15:20:17.093Z,1.30
2018-02-03T15:22:44.537Z,1.20
2018-02-03T15:25:12.009Z,1.30
2018-02-03T15:27:39.438Z,1.30
2018-02-03T15:30:06.952Z,1.30
2018-02-03T15:32:34.473Z,1.20
2018-02-03T15:35:01.945Z,1.20
2018-02-03T15:37:29.506Z,1.20
2018-02-03T15:39:56.962Z,1.20
2018-02-03T15:42:24.401Z,1.20
2018-02-03T15:44:52.824Z,1.10
2018-02-03T15:47:20.332Z,1.00
2018-02-03T15:49:47.761Z,1.00
2018-02-03T15:52:15.238Z,1.10
2018-02-03T15:54:42.645Z,1.20
2018-02-03T15:57:10.065Z,1.20
2018-02-03T15:59:37.517Z,1.10
2018-02-03T16:02:05.012Z,1.20
2018-02-03T16:04:32.428Z,1.20
2018-02-03T16:06:59.890Z,1.10
2018-02-03T16:09:27.325Z,1.10
2018-02-03T16:11:54.809Z,1.20
2018-02-03T16:14:22.244Z,1.20
2018-02-03T16:16:49.728Z,1.10
2018-02-03T16:19:17.277Z,1.20
2018-02-03T16:21:45.601Z,1.20
2018-02-03T16:24:13.813Z,1.00
2018-02-03T16:26:41.246Z,1.00
2018-02-03T16:29:08.677Z,0.90
2018-02-03T16:31:36.874Z,0.90
2018-02-03T16:34:05.191Z,0.90
2018-02-03T16:36:32.636Z,1.00
2018-02-03T16:39:00.073Z,1.00
2018-02-03T16:41:27.510Z,0.90
2018-02-03T16:43:55.707Z,1.00
2018-02-03T16:46:23.141Z,0.90
2018-02-03T16:48:51.446Z,0.90
2018-02-03T16:51:18.900Z,0.90
2018-02-03T16:53:46.373Z,0.70
2018-02-03T16:56:13.806Z,0.80
2018-02-03T16:58:41.245Z,0.90
2018-02-03T17:01:08.733Z,1.00
2018-02-03T17:03:36.197Z,1.00
2018-02-03T17:06:03.692Z,1.00
2018-02-03T17:08:31.100Z,1.10
2018-02-03T17:10:58.652Z,1.10
2018-02-03T17:13:26.753Z,1.10
2018-02-03T17:15:54.196Z,1.10
2018-02-03T17:18:21.625Z,1.20
2018-02-03T17:20:49.937Z,1.20
2018-02-03T17:23:17.373Z,1.30
2018-02-03T17:25:44.961Z,1.30
2018-02-03T17:28:12.381Z,1.20
2018-02-03T17:30:39.808Z,1.20
2018-02-03T17:33:07.306Z,1.20
2018-02-03T17:35:34.754Z,1.00
2018-02-03T17:38:07.837Z,1.00
2018-02-03T17:40:35.328Z,1.00
2018-02-03T17:43:02.780Z,1.00
2018-02-03T17:45:36.147Z,0.90
2018-02-03T17:48:03.634Z,0.90
2018-02-03T17:50:31.166Z,1.00
2018-02-03T17:52:58.641Z,1.10
2018-02-03T17:55:31.945Z,1.20
2018-02-03T17:57:59.367Z,1.20
2018-02-03T18:00:26.785Z,1.10
2018-02-03T18:02:55.005Z,1.10
2018-02-03T18:05:22.450Z,1.00
2018-02-03T18:07:49.929Z,1.00
2018-02-03T18:10:17.373Z,1.00
2018-02-03T18:12:44.805Z,0.90
2018-02-03T18:15:12.229Z,0.90
2018-02-03T18:17:39.836Z,1.00
2018-02-03T18:20:07.292Z,0.90
2018-02-03T18:22:34.746Z,0.80
2018-02-03T18:25:02.220Z,0.80
2018-02-03T18:27:29.648Z,0.90
2018-02-03T18:29:57.137Z,0.80
2018-02-03T18:32:24.689Z,0.70
2018-02-03T18:34:52.156Z,0.80
2018-02-03T18:37:19.586Z,0.80
2018-02-03T18:39:47.078Z,0.80
2018-02-03T18:42:14.602Z,0.80
2018-02-03T18:44:42.097Z,0.90
2018-02-03T18:47:09.647Z,0.80
2018-02-03T18:49:37.083Z,0.80
2018-02-03T18:52:04.530Z,0.90
2018-02-03T18:54:31.965Z,0.80
2018-02-03T18:57:00.171Z,1.00
2018-02-03T18:59:27.655Z,0.90
2018-02-03T19:01:55.093Z,0.90
2018-02-03T19:04:22.576Z,0.90
2018-02-03T19:06:50.014Z,0.90
2018-02-03T19:09:17.475Z,0.80
2018-02-03T19:11:44.938Z,0.90
2018-02-03T19:14:12.442Z,0.90
2018-02-03T19:16:39.936Z,0.80
2018-02-03T19:19:07.365Z,0.80
2018-02-03T19:21:34.867Z,0.80
2018-02-03T19:24:02.306Z,0.70
2018-02-03T19:26:29.774Z,0.70
2018-02-03T19:28:57.214Z,0.60
2018-02-03T19:31:24.653Z,0.70
2018-02-03T19:33:52.134Z,0.60
2018-02-03T19:36:19.601Z,0.60
2018-02-03T19:38:47.049Z,0.70
2018-02-03T19:41:14.477Z,0.70
2018-02-03T19:43:41.913Z,0.60
2018-02-03T19:46:10.117Z,0.30
2018-02-03T19:48:37.549Z,0.20
2018-02-03T19:51:05.733Z,0.30
2018-02-03T19:53:33.361Z,0.30
2018-02-03T19:56:00.781Z,0.30
2018-02-03T19:58:28.323Z,0.30
2018-02-03T20:00:55.741Z,0.40
2018-02-03T20:03:23.958Z,0.20
2018-02-03T20:05:51.427Z,0.10
2018-02-03T20:08:18.857Z,0.20
2018-02-03T20:10:46.292Z,0.20
2018-02-03T20:13:14.494Z,0.30
2018-02-03T20:15:41.921Z,0.20
2018-02-03T20:18:10.118Z,0.20
2018-02-03T20:20:37.589Z,0.20
2018-02-03T20:23:05.817Z,0.20
2018-02-03T20:25:34.017Z,0.20
2018-02-03T20:28:01.487Z,0.10
2018-02-03T20:30:28.940Z,0.10
2018-02-03T20:32:56.349Z,0.10
2018-02-03T20:35:24.570Z,0.10
2018-02-03T20:37:52.147Z,0.00
2018-02-03T20:40:19.606Z,0.10
2018-02-03T20:42:47.147Z,0.10
2018-02-03T20:45:14.622Z,0.00
2018-02-03T20:47:42.066Z,0.00
2018-02-03T20:50:09.510Z,0.00
2018-02-03T20:52:36.942Z,0.00
2018-02-03T20:55:05.138Z,0.20
2018-02-03T20:57:32.572Z,0.10
2018-02-03T21:00:00.042Z,0.20
2018-02-03T21:02:27.553Z,0.30
2018-02-03T21:04:54.993Z,0.30
2018-02-03T21:07:22.531Z,0.30
2018-02-03T21:09:49.966Z,0.30
2018-02-03T21:12:18.147Z,0.20
2018-02-03T21:14:46.505Z,0.20
2018-02-03T21:17:14.940Z,0.20
2018-02-03T21:19:42.370Z,0.10
2018-02-03T21:22:09.819Z,0.00
2018-02-03T21:24:37.253Z,0.00
2018-02-03T21:27:05.562Z,0.10
2018-02-03T21:29:33.019Z,0.10
2018-02-03T21:32:00.473Z,0.10
2018-02-03T21:34:28.969Z,0.10
2018-02-03T21:36:56.408Z,0.00
2018-02-03T21:39:23.882Z,0.00
2018-02-03T21:41:51.441Z,0.00
2018-02-03T21:44:18.881Z,0.00
2018-02-03T21:46:46.310Z,0.00
2018-02-03T21:49:14.525Z,0.00
2018-02-03T21:51:41.984Z,0.00
2018-02-03T21:54:09.421Z,0.00
2018-02-03T21:56:36.907Z,0.00
2018-02-03T21:59:04.354Z,0.00
2018-02-03T22:01:31.809Z,0.10
2018-02-03T22:03:59.252Z,0.10
2018-02-03T22:06:26.686Z,0.10
2018-02-03T22:08:54.125Z,0.10
2018-02-03T22:11:22.360Z,0.10
2018-02-03T22:13:49.810Z,0.00
2018-02-03T22:16:17.257Z,0.00
2018-02-03T22:18:44.723Z,-0.10
2018-02-03T22:21:12.187Z,-0.10
2018-02-03T22:23:39.634Z,-0.10
2018-02-03T22:26:07.195Z,0.00
2018-02-03T22:28:34.735Z,0.10
2018-02-03T22:31:02.314Z,0.00
2018-02-03T22:33:30.582Z,0.10
2018-02-03T22:35:58.009Z,0.10
2018-02-03T22:38:25.594Z,0.10
2018-02-03T22:40:53.061Z,0.10
2018-02-03T22:43:20.501Z,0.10
2018-02-03T22:45:47.939Z,0.10
2018-02-03T22:48:15.379Z,0.20
2018-02-03T22:50:43.597Z,0.20
2018-02-03T22:53:11.056Z,0.10
2018-02-03T22:55:38.618Z,0.10
2018-02-03T22:58:06.163Z,0.10
2018-02-03T23:00:35.706Z,0.10
2018-02-03T23:03:01.425Z,0.10
2018-02-03T23:05:28.865Z,0.10
2018-02-03T23:07:56.314Z,0.10
2018-02-03T23:10:23.748Z,0.10
2018-02-03T23:12:51.194Z,0.10
2018-02-03T23:15:18.783Z,0.10
2018-02-03T23:17:46.211Z,0.10
2018-02-03T23:20:13.653Z,0.10
2018-02-03T23:22:41.157Z,0.10
2018-02-03T23:25:08.597Z,0.10
2018-02-03T23:27:36.047Z,0.10
2018-02-03T23:30:03.517Z,0.10
2018-02-03T23:32:30.973Z,0.10
2018-02-03T23:34:58.413Z,0.00
2018-02-03T23:37:25.877Z,0.00
2018-02-03T23:39:53.333Z,-0.10
2018-02-03T23:42:20.795Z,0.00
2018-02-03T23:44:48.246Z,0.00
2018-02-03T23:47:15.674Z,0.00
2018-02-03T23:49:43.267Z,0.00
2018-02-03T23:52:10.718Z,0.00
2018-02-03T23:54:38.197Z,0.00
2018-02-03T23:57:05.631Z,0.00
2018-02-03T23:59:33.089Z,0.00
